Capitol Logistics 982

Operating for DHL



LGAV
Eleftherios Venizelos International Airport
Athens, GR
LGTS
Makedonia Airport
Thessaloniki, GR

Activity Log

Date Flight Route Aircraft Duration
02/24/2022 CPX982 KRO3T KRO G33 NEVRA/N0462F240 Z507 OSMOS OSMO2H A30F 0h 54m
01/06/2022 CPX982 KRO1F KRO G33 NEVRA Z507 OSMOS OSMO1P A30F 1h 09m
01/03/2022 CPX982 KRO1F KRO G33 NEVRA Z507 OSMOS OSMO1P A30F 1h 02m

Route Details

Aircraft Information
Group: European Fleet
Types: A30F,A31F,B738
Route Data
Demand: M
Distance: 162nm
Duration: 1h 05m
Recm'd Route: KRO1F KRO G33 NEVRA Z507 OSMOS OSMO1P
Origin Wx: LGAV 272050Z 32001KT CAVOK 21/15 Q1015 NOSIG
Dest. Wx: LGTS 272050Z VRB02KT 9999 FEW025 23/18 Q1014 NOSIG
Notes:

Financial History
Total Freight: 219,694lbs
Average Load: 73,231lbs/flt
Fuel Used: 38,088lbs
Avg. Fuel Used: 12,696lbs/flt
Fuel Expense: $12,035
Avg. Fuel Expense: $4,012
Avg. Fuel Cost: $0.32/lbs
Total Gross Income: $806,716
Pilot Pay: $777
Total Expenses: $96,846
Total Revenue: $697,149
Average Revenue: $268,905.46